Time,TemperatureF,DewpointF,PressureIn,WindDirection,WindDirectionDegrees,WindSpeedMPH,WindSpeedGustMPH,Humidity,HourlyPrecipIn,Conditions,Clouds,dailyrainin,SoftwareType,DateUTC
2013-07-22 00:04:00,69.6,67.5,29.83,NNE,29,0.0,0.0,93,0.00,,,0.00,Wunderground v.1.15,2013-07-22 05:04:00,
2013-07-22 00:09:00,69.2,67.4,29.83,NNE,29,0.0,0.0,94,0.00,,,0.00,Wunderground v.1.15,2013-07-22 05:09:00,
2013-07-22 00:14:00,69.1,67.6,29.83,NNE,28,0.0,0.0,95,0.00,,,0.00,Wunderground v.1.15,2013-07-22 05:14:00,
2013-07-22 00:19:00,69.0,67.5,29.83,NNE,29,0.0,0.0,95,0.00,,,0.00,Wunderground v.1.15,2013-07-22 05:19:00,
2013-07-22 00:24:00,68.9,67.7,29.83,NNE,29,0.0,0.0,96,0.00,,,0.00,Wunderground v.1.15,2013-07-22 05:24:00,
2013-07-22 00:30:00,68.9,67.7,29.83,NNE,30,0.0,0.0,96,0.00,,,0.00,Wunderground v.1.15,2013-07-22 05:30:00,
2013-07-22 00:35:00,68.9,67.7,29.83,NNE,30,0.0,0.0,96,0.00,,,0.00,Wunderground v.1.15,2013-07-22 05:35:00,
2013-07-22 00:41:00,68.9,67.7,29.83,NNE,30,0.0,0.0,96,0.00,,,0.00,Wunderground v.1.15,2013-07-22 05:41:00,
2013-07-22 00:46:00,69.0,68.1,29.83,NNE,29,0.0,0.0,97,0.00,,,0.00,Wunderground v.1.15,2013-07-22 05:46:00,
2013-07-22 00:51:00,68.9,67.7,29.83,NNE,29,0.0,0.0,96,0.00,,,0.00,Wunderground v.1.15,2013-07-22 05:51:00,
2013-07-22 00:56:00,68.8,67.9,29.83,NNE,29,0.0,0.0,97,0.00,,,0.00,Wunderground v.1.15,2013-07-22 05:56:00,
2013-07-22 01:01:00,68.8,67.9,29.83,NNE,29,0.0,0.0,97,0.00,,,0.00,Wunderground v.1.15,2013-07-22 06:01:00,
2013-07-22 01:06:00,68.8,67.9,29.83,NNE,29,0.0,0.0,97,0.00,,,0.00,Wunderground v.1.15,2013-07-22 06:06:00,
2013-07-22 01:11:00,68.8,67.9,29.83,NNE,29,0.0,0.0,97,0.00,,,0.00,Wunderground v.1.15,2013-07-22 06:11:00,
2013-07-22 01:17:00,68.7,67.8,29.83,NNE,29,0.0,0.0,97,0.00,,,0.00,Wunderground v.1.15,2013-07-22 06:17:00,
2013-07-22 01:22:00,68.7,67.8,29.82,NNE,29,0.0,0.0,97,0.00,,,0.00,Wunderground v.1.15,2013-07-22 06:22:00,
2013-07-22 01:27:00,68.6,67.7,29.82,NNE,28,0.0,0.0,97,0.00,,,0.00,Wunderground v.1.15,2013-07-22 06:27:00,
2013-07-22 01:32:00,68.6,67.7,29.82,NNE,30,0.0,0.0,97,0.00,,,0.00,Wunderground v.1.15,2013-07-22 06:32:00,
2013-07-22 01:37:00,68.6,67.7,29.82,NNE,28,0.0,0.0,97,0.00,,,0.00,Wunderground v.1.15,2013-07-22 06:37:00,
2013-07-22 01:42:00,68.6,68.0,29.82,NNE,29,0.0,0.0,98,0.00,,,0.00,Wunderground v.1.15,2013-07-22 06:42:00,
2013-07-22 01:47:00,68.6,68.0,29.81,NNE,29,0.0,0.0,98,0.00,,,0.00,Wunderground v.1.15,2013-07-22 06:47:00,
2013-07-22 01:53:00,68.6,68.0,29.82,NNE,29,0.0,0.0,98,0.00,,,0.00,Wunderground v.1.15,2013-07-22 06:53:00,
2013-07-22 01:58:00,68.7,68.1,29.82,NNE,23,0.0,0.0,98,0.00,,,0.00,Wunderground v.1.15,2013-07-22 06:58:00,
2013-07-22 02:03:00,68.7,68.1,29.81,NNE,23,0.0,0.0,98,0.00,,,0.00,Wunderground v.1.15,2013-07-22 07:03:00,
2013-07-22 02:08:00,68.6,68.0,29.82,NNE,23,0.0,0.0,98,0.00,,,0.00,Wunderground v.1.15,2013-07-22 07:08:00,
2013-07-22 02:13:00,68.5,67.9,29.81,North,9,0.0,0.0,98,0.00,,,0.00,Wunderground v.1.15,2013-07-22 07:13:00,
2013-07-22 02:19:00,68.3,67.7,29.80,North,9,0.0,0.0,98,0.00,,,0.00,Wunderground v.1.15,2013-07-22 07:19:00,
2013-07-22 02:24:00,68.2,67.6,29.81,North,8,0.0,0.0,98,0.00,,,0.00,Wunderground v.1.15,2013-07-22 07:24:00,
2013-07-22 02:29:00,68.1,67.5,29.81,North,9,0.0,0.0,98,0.00,,,0.00,Wunderground v.1.15,2013-07-22 07:29:00,
2013-07-22 02:34:00,68.0,67.4,29.81,North,8,0.0,0.0,98,0.00,,,0.00,Wunderground v.1.15,2013-07-22 07:34:00,
2013-07-22 02:39:00,67.9,67.3,29.80,North,9,0.0,0.0,98,0.00,,,0.00,Wunderground v.1.15,2013-07-22 07:39:00,
2013-07-22 02:45:00,67.8,67.2,29.80,North,8,0.0,0.0,98,0.00,,,0.00,Wunderground v.1.15,2013-07-22 07:45:00,
2013-07-22 02:50:00,67.8,67.2,29.80,North,8,0.0,0.0,98,0.00,,,0.00,Wunderground v.1.15,2013-07-22 07:50:00,
2013-07-22 02:55:00,67.7,67.1,29.80,North,11,0.0,0.0,98,0.00,,,0.00,Wunderground v.1.15,2013-07-22 07:55:00,
2013-07-22 03:00:00,67.7,67.1,29.79,North,11,0.0,0.0,98,0.00,,,0.00,Wunderground v.1.15,2013-07-22 08:00:00,
2013-07-22 03:06:00,67.6,67.0,29.79,North,11,0.0,0.0,98,0.00,,,0.00,Wunderground v.1.15,2013-07-22 08:06:00,
2013-07-22 03:11:00,67.5,66.9,29.79,North,11,0.0,0.0,98,0.00,,,0.00,Wunderground v.1.15,2013-07-22 08:11:00,
2013-07-22 03:16:00,67.4,66.8,29.79,North,11,0.0,0.0,98,0.00,,,0.00,Wunderground v.1.15,2013-07-22 08:16:00,
2013-07-22 03:21:00,67.3,66.7,29.79,North,11,0.0,0.0,98,0.00,,,0.00,Wunderground v.1.15,2013-07-22 08:21:00,
2013-07-22 03:26:00,67.2,66.6,29.79,North,11,0.0,0.0,98,0.00,,,0.00,Wunderground v.1.15,2013-07-22 08:26:00,
2013-07-22 03:31:00,67.1,66.5,29.79,North,11,0.0,0.0,98,0.00,,,0.00,Wunderground v.1.15,2013-07-22 08:31:00,
2013-07-22 03:37:00,67.1,66.5,29.79,North,9,0.0,0.0,98,0.00,,,0.00,Wunderground v.1.15,2013-07-22 08:37:00,
2013-07-22 03:42:00,66.9,66.3,29.79,WSW,256,0.0,0.0,98,0.00,,,0.00,Wunderground v.1.15,2013-07-22 08:42:00,
2013-07-22 03:47:00,67.0,66.4,29.79,WSW,256,0.0,0.0,98,0.00,,,0.00,Wunderground v.1.15,2013-07-22 08:47:00,
2013-07-22 03:52:00,66.9,66.3,29.79,WSW,256,0.0,0.0,98,0.00,,,0.00,Wunderground v.1.15,2013-07-22 08:52:00,
2013-07-22 03:57:00,66.8,66.2,29.79,WSW,256,0.0,0.0,98,0.00,,,0.00,Wunderground v.1.15,2013-07-22 08:57:00,
2013-07-22 04:03:00,66.7,66.1,29.78,WSW,256,0.0,0.0,98,0.00,,,0.00,Wunderground v.1.15,2013-07-22 09:03:00,
2013-07-22 04:08:00,66.6,66.0,29.79,WSW,256,0.0,0.0,98,0.00,,,0.00,Wunderground v.1.15,2013-07-22 09:08:00,
2013-07-22 04:13:00,66.5,65.9,29.79,WSW,256,0.0,0.0,98,0.00,,,0.00,Wunderground v.1.15,2013-07-22 09:13:00,
2013-07-22 04:18:00,66.3,65.7,29.78,WSW,256,0.0,0.0,98,0.00,,,0.00,Wunderground v.1.15,2013-07-22 09:18:00,
2013-07-22 04:23:00,66.1,65.5,29.78,WSW,256,0.0,0.0,98,0.00,,,0.00,Wunderground v.1.15,2013-07-22 09:23:00,
2013-07-22 04:29:00,66.1,65.5,29.78,WSW,256,0.0,0.0,98,0.00,,,0.00,Wunderground v.1.15,2013-07-22 09:29:00,
2013-07-22 04:34:00,66.0,65.4,29.78,WSW,256,0.0,0.0,98,0.00,,,0.00,Wunderground v.1.15,2013-07-22 09:34:00,
2013-07-22 04:39:00,66.0,65.4,29.78,WSW,256,0.0,0.0,98,0.00,,,0.00,Wunderground v.1.15,2013-07-22 09:39:00,
2013-07-22 04:44:00,66.1,65.5,29.78,WSW,256,0.0,0.0,98,0.00,,,0.00,Wunderground v.1.15,2013-07-22 09:44:00,
2013-07-22 04:49:00,65.9,65.3,29.79,WSW,256,0.0,0.0,98,0.00,,,0.00,Wunderground v.1.15,2013-07-22 09:49:00,
2013-07-22 04:55:00,65.5,64.9,29.78,WSW,256,0.0,0.0,98,0.00,,,0.00,Wunderground v.1.15,2013-07-22 09:55:00,
2013-07-22 05:00:00,65.4,64.8,29.79,WSW,256,0.0,0.0,98,0.00,,,0.00,Wunderground v.1.15,2013-07-22 10:00:00,
2013-07-22 05:06:00,65.3,64.7,29.79,WSW,256,0.0,0.0,98,0.00,,,0.00,Wunderground v.1.15,2013-07-22 10:06:00,
2013-07-22 05:12:00,65.3,64.7,29.79,WSW,257,0.0,0.0,98,0.00,,,0.00,Wunderground v.1.15,2013-07-22 10:12:00,
2013-07-22 05:17:00,65.4,64.8,29.80,WSW,256,0.0,0.0,98,0.00,,,0.00,Wunderground v.1.15,2013-07-22 10:17:00,
2013-07-22 05:22:00,65.3,64.7,29.80,WSW,256,0.0,0.0,98,0.00,,,0.00,Wunderground v.1.15,2013-07-22 10:22:00,
2013-07-22 05:27:00,65.2,64.6,29.80,WSW,256,0.0,0.0,98,0.00,,,0.01,Wunderground v.1.15,2013-07-22 10:27:00,
2013-07-22 05:32:00,65.1,64.5,29.80,WSW,256,0.0,0.0,98,0.00,,,0.01,Wunderground v.1.15,2013-07-22 10:32:00,
2013-07-22 05:37:00,65.0,64.4,29.80,WSW,256,0.0,0.0,98,0.00,,,0.01,Wunderground v.1.15,2013-07-22 10:37:00,
2013-07-22 05:43:00,65.0,64.4,29.81,WSW,256,0.0,0.0,98,0.00,,,0.01,Wunderground v.1.15,2013-07-22 10:43:00,
2013-07-22 05:48:00,64.9,64.3,29.81,WSW,257,0.0,0.0,98,0.00,,,0.01,Wunderground v.1.15,2013-07-22 10:48:00,
2013-07-22 05:53:00,64.8,64.2,29.81,WSW,256,0.0,0.0,98,0.00,,,0.01,Wunderground v.1.15,2013-07-22 10:53:00,
2013-07-22 05:58:00,64.8,64.2,29.81,WSW,256,0.0,0.0,98,0.00,,,0.01,Wunderground v.1.15,2013-07-22 10:58:00,
2013-07-22 06:03:00,64.8,64.2,29.81,WSW,256,0.0,0.0,98,0.00,,,0.01,Wunderground v.1.15,2013-07-22 11:03:00,
2013-07-22 06:08:00,64.8,64.5,29.81,WSW,256,0.0,0.0,99,0.00,,,0.01,Wunderground v.1.15,2013-07-22 11:08:00,
2013-07-22 06:13:00,64.7,64.4,29.81,WSW,256,0.0,0.0,99,0.00,,,0.01,Wunderground v.1.15,2013-07-22 11:13:00,
2013-07-22 06:18:00,64.7,64.4,29.81,WSW,256,0.0,0.0,99,0.00,,,0.01,Wunderground v.1.15,2013-07-22 11:18:00,
2013-07-22 06:24:00,64.7,64.4,29.81,WSW,256,0.0,0.0,99,0.00,,,0.01,Wunderground v.1.15,2013-07-22 11:24:00,
2013-07-22 06:29:00,64.9,64.6,29.81,WSW,256,0.0,0.0,99,0.00,,,0.01,Wunderground v.1.15,2013-07-22 11:29:00,
2013-07-22 06:34:00,65.1,64.8,29.81,WSW,256,0.0,0.0,99,0.00,,,0.01,Wunderground v.1.15,2013-07-22 11:34:00,
2013-07-22 06:39:00,65.3,65.0,29.81,WSW,256,0.0,0.0,99,0.00,,,0.01,Wunderground v.1.15,2013-07-22 11:39:00,
2013-07-22 06:44:00,65.7,65.4,29.81,WSW,256,0.0,0.0,99,0.00,,,0.01,Wunderground v.1.15,2013-07-22 11:44:00,
2013-07-22 06:49:00,65.8,65.5,29.81,WSW,256,0.0,0.0,99,0.00,,,0.01,Wunderground v.1.15,2013-07-22 11:49:00,
2013-07-22 06:54:00,65.8,65.5,29.81,WSW,256,0.0,0.0,99,0.00,,,0.01,Wunderground v.1.15,2013-07-22 11:54:00,
2013-07-22 07:00:00,66.1,65.8,29.81,WSW,254,0.0,0.0,99,0.00,,,0.01,Wunderground v.1.15,2013-07-22 12:00:00,
2013-07-22 07:05:00,66.6,66.3,29.81,SW,226,0.0,0.0,99,0.00,,,0.01,Wunderground v.1.15,2013-07-22 12:05:00,
2013-07-22 07:10:00,67.3,67.0,29.81,SW,228,0.0,0.0,99,0.00,,,0.01,Wunderground v.1.15,2013-07-22 12:10:00,
2013-07-22 07:15:00,68.2,67.9,29.81,SW,227,0.0,0.0,99,0.00,,,0.01,Wunderground v.1.15,2013-07-22 12:15:00,
2013-07-22 07:21:00,68.4,68.1,29.81,WSW,242,0.0,0.0,99,0.00,,,0.01,Wunderground v.1.15,2013-07-22 12:21:00,
2013-07-22 07:26:00,68.3,67.7,29.81,WSW,243,0.0,0.0,98,0.00,,,0.01,Wunderground v.1.15,2013-07-22 12:26:00,
2013-07-22 07:31:00,68.8,68.2,29.81,WSW,243,0.0,0.0,98,0.00,,,0.01,Wunderground v.1.15,2013-07-22 12:31:00,
2013-07-22 07:36:00,69.4,68.8,29.81,WSW,243,0.0,0.0,98,0.00,,,0.01,Wunderground v.1.15,2013-07-22 12:36:00,
2013-07-22 07:41:00,69.5,68.9,29.81,WSW,243,0.0,0.0,98,0.00,,,0.01,Wunderground v.1.15,2013-07-22 12:41:00,
2013-07-22 07:46:00,69.5,68.9,29.81,SW,232,0.0,0.0,98,0.00,,,0.01,Wunderground v.1.15,2013-07-22 12:46:00,
2013-07-22 07:52:00,69.7,69.1,29.82,SSW,198,0.0,0.0,98,0.00,,,0.01,Wunderground v.1.15,2013-07-22 12:52:00,
2013-07-22 07:57:00,69.9,69.3,29.81,SSW,198,0.0,0.0,98,0.00,,,0.01,Wunderground v.1.15,2013-07-22 12:57:00,
2013-07-22 08:02:00,70.0,69.4,29.81,SSE,156,0.0,0.0,98,0.00,,,0.01,Wunderground v.1.15,2013-07-22 13:02:00,
2013-07-22 08:07:00,70.1,69.5,29.81,ESE,119,0.0,0.0,98,0.00,,,0.01,Wunderground v.1.15,2013-07-22 13:07:00,
2013-07-22 08:12:00,70.1,69.5,29.81,SE,131,0.0,0.0,98,0.00,,,0.01,Wunderground v.1.15,2013-07-22 13:12:00,
2013-07-22 08:18:00,70.3,69.7,29.81,SSE,150,0.0,0.0,98,0.00,,,0.01,Wunderground v.1.15,2013-07-22 13:18:00,
2013-07-22 08:23:00,70.7,70.1,29.81,ESE,108,0.0,0.0,98,0.00,,,0.01,Wunderground v.1.15,2013-07-22 13:23:00,
2013-07-22 08:28:00,71.2,70.6,29.81,SSE,165,0.0,1.0,98,0.00,,,0.01,Wunderground v.1.15,2013-07-22 13:28:00,
2013-07-22 08:33:00,71.4,70.2,29.81,SSE,151,0.0,0.0,96,0.00,,,0.01,Wunderground v.1.15,2013-07-22 13:33:00,
2013-07-22 08:38:00,71.6,70.4,29.81,SE,144,0.0,2.0,96,0.00,,,0.01,Wunderground v.1.15,2013-07-22 13:38:00,
2013-07-22 08:44:00,71.8,70.0,29.81,SSW,200,0.0,1.0,94,0.00,,,0.01,Wunderground v.1.15,2013-07-22 13:44:00,
2013-07-22 08:49:00,72.3,70.5,29.81,SE,142,0.0,1.0,94,0.00,,,0.01,Wunderground v.1.15,2013-07-22 13:49:00,
2013-07-22 08:54:00,72.8,70.7,29.81,SSW,210,1.0,2.0,93,0.00,,,0.01,Wunderground v.1.15,2013-07-22 13:54:00,
2013-07-22 08:59:00,73.1,70.6,29.81,SW,225,1.0,2.0,92,0.00,,,0.01,Wunderground v.1.15,2013-07-22 13:59:00,
2013-07-22 09:04:00,73.3,70.5,29.81,SSW,200,1.0,2.0,91,0.00,,,0.01,Wunderground v.1.15,2013-07-22 14:04:00,
2013-07-22 09:10:00,73.9,70.8,29.81,SW,224,1.0,4.0,90,0.00,,,0.01,Wunderground v.1.15,2013-07-22 14:10:00,
2013-07-22 09:15:00,74.1,70.6,29.81,WSW,242,2.0,4.0,89,0.00,,,0.01,Wunderground v.1.15,2013-07-22 14:15:00,
2013-07-22 09:20:00,74.2,71.1,29.81,SW,215,2.0,2.0,90,0.00,,,0.01,Wunderground v.1.15,2013-07-22 14:20:00,
2013-07-22 09:25:00,74.4,70.6,29.81,West,267,3.0,4.0,88,0.00,,,0.01,Wunderground v.1.15,2013-07-22 14:25:00,
2013-07-22 09:30:00,74.4,70.9,29.81,WSW,255,3.0,3.0,89,0.00,,,0.01,Wunderground v.1.15,2013-07-22 14:30:00,
2013-07-22 09:36:00,74.6,70.8,29.81,NW,307,3.0,5.0,88,0.00,,,0.01,Wunderground v.1.15,2013-07-22 14:36:00,
2013-07-22 09:41:00,74.6,70.8,29.81,NW,304,3.0,3.0,88,0.00,,,0.01,Wunderground v.1.15,2013-07-22 14:41:00,
2013-07-22 09:46:00,75.0,71.2,29.81,WSW,256,2.0,6.0,88,0.00,,,0.01,Wunderground v.1.15,2013-07-22 14:46:00,
2013-07-22 09:51:00,74.9,70.4,29.81,SW,230,3.0,3.0,86,0.00,,,0.01,Wunderground v.1.15,2013-07-22 14:51:00,
2013-07-22 09:56:00,75.3,71.5,29.81,SSE,165,2.0,3.0,88,0.00,,,0.01,Wunderground v.1.15,2013-07-22 14:56:00,
2013-07-22 10:02:00,76.1,71.6,29.81,WSW,255,1.0,4.0,86,0.00,,,0.01,Wunderground v.1.15,2013-07-22 15:02:00,
2013-07-22 10:07:00,75.9,71.4,29.81,West,264,2.0,5.0,86,0.00,,,0.01,Wunderground v.1.15,2013-07-22 15:07:00,
2013-07-22 10:12:00,76.2,71.7,29.81,SSW,212,2.0,3.0,86,0.00,,,0.01,Wunderground v.1.15,2013-07-22 15:12:00,
2013-07-22 10:17:00,76.7,71.8,29.82,SW,233,2.0,5.0,85,0.00,,,0.01,Wunderground v.1.15,2013-07-22 15:17:00,
2013-07-22 10:22:00,76.8,72.3,29.82,WSW,241,3.0,7.0,86,0.00,,,0.01,Wunderground v.1.15,2013-07-22 15:22:00,
2013-07-22 10:28:00,76.6,71.4,29.81,WSW,248,4.0,7.0,84,0.00,,,0.01,Wunderground v.1.15,2013-07-22 15:28:00,
2013-07-22 10:33:00,76.9,72.4,29.81,SW,224,3.0,4.0,86,0.00,,,0.01,Wunderground v.1.15,2013-07-22 15:33:00,
2013-07-22 10:38:00,76.8,71.2,29.81,WSW,246,2.0,4.0,83,0.00,,,0.01,Wunderground v.1.15,2013-07-22 15:38:00,
2013-07-22 10:43:00,77.3,72.4,29.81,SSW,200,2.0,2.0,85,0.00,,,0.01,Wunderground v.1.15,2013-07-22 15:43:00,
2013-07-22 10:48:00,78.0,72.8,29.81,West,274,2.0,4.0,84,0.00,,,0.01,Wunderground v.1.15,2013-07-22 15:48:00,
2013-07-22 10:54:00,77.8,71.9,29.81,WSW,252,3.0,6.0,82,0.00,,,0.01,Wunderground v.1.15,2013-07-22 15:54:00,
2013-07-22 10:59:00,77.9,71.6,29.81,WSW,248,4.0,6.0,81,0.00,,,0.01,Wunderground v.1.15,2013-07-22 15:59:00,
2013-07-22 11:04:00,78.1,72.5,29.81,WSW,257,3.0,4.0,83,0.00,,,0.01,Wunderground v.1.15,2013-07-22 16:04:00,
2013-07-22 11:09:00,78.4,71.7,29.81,WSW,240,3.0,3.0,80,0.00,,,0.01,Wunderground v.1.15,2013-07-22 16:09:00,
2013-07-22 11:15:00,78.7,71.6,29.82,West,274,3.0,5.0,79,0.00,,,0.01,Wunderground v.1.15,2013-07-22 16:15:00,
2013-07-22 11:20:00,79.0,71.2,29.82,SW,233,2.0,4.0,77,0.00,,,0.01,Wunderground v.1.15,2013-07-22 16:20:00,
2013-07-22 11:25:00,79.5,71.7,29.82,SW,219,2.0,4.0,77,0.00,,,0.01,Wunderground v.1.15,2013-07-22 16:25:00,
2013-07-22 11:30:00,79.9,72.8,29.81,SW,228,2.0,2.0,79,0.00,,,0.01,Wunderground v.1.15,2013-07-22 16:30:00,
2013-07-22 11:35:00,80.0,71.4,29.81,West,264,2.0,4.0,75,0.00,,,0.01,Wunderground v.1.15,2013-07-22 16:35:00,
2013-07-22 11:40:00,80.1,72.2,29.81,West,266,2.0,3.0,77,0.00,,,0.01,Wunderground v.1.15,2013-07-22 16:40:00,
2013-07-22 11:46:00,80.2,72.7,29.81,WSW,248,2.0,4.0,78,0.00,,,0.01,Wunderground v.1.15,2013-07-22 16:46:00,
2013-07-22 11:51:00,80.5,71.8,29.81,SW,228,2.0,2.0,75,0.00,,,0.01,Wunderground v.1.15,2013-07-22 16:51:00,
2013-07-22 11:56:00,80.6,71.5,29.81,WSW,246,2.0,3.0,74,0.00,,,0.01,Wunderground v.1.15,2013-07-22 16:56:00,
2013-07-22 12:01:00,81.0,72.3,29.81,SSW,213,2.0,4.0,75,0.00,,,0.01,Wunderground v.1.15,2013-07-22 17:01:00,
2013-07-22 12:06:00,81.2,73.3,29.81,WSW,238,1.0,4.0,77,0.00,,,0.01,Wunderground v.1.15,2013-07-22 17:06:00,
2013-07-22 12:12:00,81.7,73.0,29.80,SSW,212,1.0,3.0,75,0.00,,,0.01,Wunderground v.1.15,2013-07-22 17:12:00,
2013-07-22 12:17:00,81.9,73.6,29.80,SSW,199,2.0,5.0,76,0.00,,,0.01,Wunderground v.1.15,2013-07-22 17:17:00,
2013-07-22 12:22:00,82.1,73.8,29.80,SW,225,2.0,4.0,76,0.00,,,0.01,Wunderground v.1.15,2013-07-22 17:22:00,
2013-07-22 12:27:00,82.3,72.4,29.80,SE,135,2.0,4.0,72,0.00,,,0.01,Wunderground v.1.15,2013-07-22 17:27:00,
2013-07-22 12:32:00,82.0,71.7,29.79,West,262,2.0,3.0,71,0.00,,,0.01,Wunderground v.1.15,2013-07-22 17:32:00,
2013-07-22 12:38:00,81.5,73.2,29.79,NNW,328,2.0,3.0,76,0.00,,,0.01,Wunderground v.1.15,2013-07-22 17:38:00,
2013-07-22 12:43:00,82.2,73.9,29.78,North,354,1.0,1.0,76,0.00,,,0.01,Wunderground v.1.15,2013-07-22 17:43:00,
2013-07-22 12:48:00,82.7,72.7,29.78,SW,231,1.0,2.0,72,0.00,,,0.01,Wunderground v.1.15,2013-07-22 17:48:00,
2013-07-22 12:53:00,83.0,73.0,29.78,South,181,1.0,4.0,72,0.00,,,0.01,Wunderground v.1.15,2013-07-22 17:53:00,
2013-07-22 12:59:00,83.1,71.9,29.78,SE,136,2.0,4.0,69,0.00,,,0.01,Wunderground v.1.15,2013-07-22 17:59:00,
2013-07-22 13:05:00,83.3,73.3,29.78,West,260,2.0,4.0,72,0.00,,,0.01,Wunderground v.1.15,2013-07-22 18:05:00,
2013-07-22 13:10:00,83.0,70.5,29.78,WSW,238,2.0,2.0,66,0.00,,,0.01,Wunderground v.1.15,2013-07-22 18:10:00,
2013-07-22 13:16:00,83.1,71.9,29.78,SSW,197,1.0,2.0,69,0.00,,,0.01,Wunderground v.1.15,2013-07-22 18:16:00,
2013-07-22 13:22:00,83.5,71.8,29.77,WSW,248,1.0,5.0,68,0.00,,,0.01,Wunderground v.1.15,2013-07-22 18:22:00,
2013-07-22 13:27:00,83.3,71.6,29.78,SSW,199,3.0,5.0,68,0.00,,,0.01,Wunderground v.1.15,2013-07-22 18:27:00,
2013-07-22 13:33:00,83.8,70.8,29.78,SSE,164,2.0,3.0,65,0.00,,,0.01,Wunderground v.1.15,2013-07-22 18:33:00,
2013-07-22 13:38:00,84.3,72.1,29.78,West,260,1.0,3.0,67,0.00,,,0.01,Wunderground v.1.15,2013-07-22 18:38:00,
2013-07-22 13:43:00,84.4,70.9,29.77,WSW,256,2.0,6.0,64,0.00,,,0.01,Wunderground v.1.15,2013-07-22 18:43:00,
2013-07-22 13:49:00,84.1,70.6,29.77,West,260,3.0,6.0,64,0.00,,,0.01,Wunderground v.1.15,2013-07-22 18:49:00,
2013-07-22 13:55:00,84.5,71.4,29.77,WSW,240,2.0,3.0,65,0.00,,,0.01,Wunderground v.1.15,2013-07-22 18:55:00,
2013-07-22 14:01:00,84.6,72.4,29.77,SW,226,2.0,4.0,67,0.00,,,0.01,Wunderground v.1.15,2013-07-22 19:01:00,
2013-07-22 14:06:00,84.7,71.2,29.77,WSW,256,3.0,4.0,64,0.00,,,0.01,Wunderground v.1.15,2013-07-22 19:06:00,
2013-07-22 14:11:00,84.7,71.2,29.77,SW,219,2.0,2.0,64,0.00,,,0.01,Wunderground v.1.15,2013-07-22 19:11:00,
2013-07-22 14:16:00,85.0,71.9,29.77,WSW,238,2.0,6.0,65,0.00,,,0.01,Wunderground v.1.15,2013-07-22 19:16:00,
2013-07-22 14:21:00,84.8,71.7,29.77,SW,227,3.0,5.0,65,0.00,,,0.01,Wunderground v.1.15,2013-07-22 19:21:00,
2013-07-22 14:27:00,85.1,72.0,29.77,SSW,204,3.0,5.0,65,0.00,,,0.01,Wunderground v.1.15,2013-07-22 19:27:00,
2013-07-22 14:32:00,84.9,72.3,29.77,West,262,3.0,4.0,66,0.00,,,0.01,Wunderground v.1.15,2013-07-22 19:32:00,
2013-07-22 14:38:00,84.3,72.6,29.77,WSW,240,2.0,4.0,68,0.00,,,0.01,Wunderground v.1.15,2013-07-22 19:38:00,
2013-07-22 14:44:00,84.8,73.1,29.77,WSW,257,2.0,6.0,68,0.00,,,0.01,Wunderground v.1.15,2013-07-22 19:44:00,
2013-07-22 14:50:00,84.9,71.8,29.77,West,263,3.0,4.0,65,0.00,,,0.01,Wunderground v.1.15,2013-07-22 19:50:00,
2013-07-22 14:55:00,84.8,73.5,29.77,WSW,253,4.0,6.0,69,0.00,,,0.01,Wunderground v.1.15,2013-07-22 19:55:00,
2013-07-22 15:00:00,84.6,72.9,29.77,SW,233,3.0,4.0,68,0.00,,,0.01,Wunderground v.1.15,2013-07-22 20:00:00,
2013-07-22 15:06:00,84.6,72.4,29.77,West,266,3.0,8.0,67,0.00,,,0.01,Wunderground v.1.15,2013-07-22 20:06:00,
2013-07-22 15:11:00,84.3,73.0,29.77,West,263,4.0,4.0,69,0.00,,,0.01,Wunderground v.1.15,2013-07-22 20:11:00,
2013-07-22 15:16:00,85.2,73.9,29.77,SW,235,2.0,4.0,69,0.00,,,0.01,Wunderground v.1.15,2013-07-22 20:16:00,
2013-07-22 15:17:00,85.2,73.9,29.77,WSW,253,2.0,4.0,69,0.00,,,0.01,Wunderground v.1.15,2013-07-22 20:17:00,
2013-07-22 15:18:00,85.2,74.3,29.77,WSW,256,2.0,4.0,70,0.00,,,0.01,Wunderground v.1.15,2013-07-22 20:18:00,
2013-07-22 15:19:00,85.2,73.9,29.77,WSW,248,2.0,4.0,69,0.00,,,0.01,Wunderground v.1.15,2013-07-22 20:19:00,
2013-07-22 15:21:00,85.4,74.1,29.77,WSW,238,2.0,3.0,69,0.00,,,0.01,Wunderground v.1.15,2013-07-22 20:21:00,
2013-07-22 15:26:00,85.7,74.4,29.76,WSW,250,3.0,4.0,69,0.00,,,0.01,Wunderground v.1.15,2013-07-22 20:26:00,
2013-07-22 15:32:00,85.9,73.7,29.76,SW,214,3.0,4.0,67,0.00,,,0.01,Wunderground v.1.15,2013-07-22 20:32:00,
2013-07-22 15:34:00,85.8,74.9,29.76,WSW,238,3.0,4.0,70,0.00,,,0.01,Wunderground v.1.15,2013-07-22 20:34:00,
2013-07-22 15:39:00,85.8,73.1,29.76,WSW,256,3.0,5.0,66,0.00,,,0.01,Wunderground v.1.15,2013-07-22 20:39:00,
2013-07-22 15:45:00,86.0,73.8,29.76,West,280,3.0,6.0,67,0.00,,,0.01,Wunderground v.1.15,2013-07-22 20:45:00,
2013-07-22 15:48:00,86.1,73.4,29.76,West,280,3.0,6.0,66,0.00,,,0.01,Wunderground v.1.15,2013-07-22 20:48:00,
2013-07-22 15:54:00,86.5,75.1,29.76,West,271,3.0,5.0,69,0.00,,,0.01,Wunderground v.1.15,2013-07-22 20:54:00,
2013-07-22 15:59:00,86.2,74.0,29.76,WSW,246,3.0,5.0,67,0.00,,,0.01,Wunderground v.1.15,2013-07-22 20:59:00,
2013-07-22 16:04:00,86.4,75.5,29.76,WSW,240,3.0,3.0,70,0.00,,,0.01,Wunderground v.1.15,2013-07-22 21:04:00,
2013-07-22 16:09:00,86.3,74.0,29.76,SW,215,3.0,5.0,67,0.00,,,0.01,Wunderground v.1.15,2013-07-22 21:09:00,
2013-07-22 16:14:00,86.5,74.7,29.76,WSW,255,4.0,6.0,68,0.00,,,0.01,Wunderground v.1.15,2013-07-22 21:14:00,
2013-07-22 16:20:00,85.5,73.3,29.76,WSW,254,4.0,4.0,67,0.00,,,0.01,Wunderground v.1.15,2013-07-22 21:20:00,
2013-07-22 16:25:00,85.1,73.8,29.75,West,274,3.0,4.0,69,0.00,,,0.01,Wunderground v.1.15,2013-07-22 21:25:00,
2013-07-22 16:30:00,85.3,72.6,29.75,West,263,3.0,3.0,66,0.00,,,0.01,Wunderground v.1.15,2013-07-22 21:30:00,
2013-07-22 16:35:00,85.6,74.3,29.75,WSW,238,4.0,4.0,69,0.00,,,0.01,Wunderground v.1.15,2013-07-22 21:35:00,
2013-07-22 16:40:00,86.0,73.8,29.75,SW,233,4.0,4.0,67,0.00,,,0.01,Wunderground v.1.15,2013-07-22 21:40:00,
2013-07-22 16:46:00,86.3,73.6,29.75,WNW,284,4.0,8.0,66,0.00,,,0.01,Wunderground v.1.15,2013-07-22 21:46:00,
2013-07-22 16:51:00,86.3,73.6,29.75,WSW,248,5.0,5.0,66,0.00,,,0.01,Wunderground v.1.15,2013-07-22 21:51:00,
2013-07-22 16:56:00,86.2,73.5,29.75,WSW,248,5.0,7.0,66,0.00,,,0.01,Wunderground v.1.15,2013-07-22 21:56:00,
2013-07-22 17:01:00,86.3,74.5,29.75,SW,221,5.0,8.0,68,0.00,,,0.01,Wunderground v.1.15,2013-07-22 22:01:00,
2013-07-22 17:06:00,86.3,74.9,29.75,SW,222,5.0,8.0,69,0.00,,,0.01,Wunderground v.1.15,2013-07-22 22:06:00,
2013-07-22 17:12:00,86.5,74.7,29.75,SW,235,4.0,5.0,68,0.00,,,0.01,Wunderground v.1.15,2013-07-22 22:12:00,
2013-07-22 17:17:00,86.6,74.3,29.75,West,262,4.0,9.0,67,0.00,,,0.01,Wunderground v.1.15,2013-07-22 22:17:00,
2013-07-22 17:22:00,86.4,74.1,29.74,WSW,249,5.0,6.0,67,0.00,,,0.01,Wunderground v.1.15,2013-07-22 22:22:00,
2013-07-22 17:27:00,86.3,74.9,29.74,WSW,240,5.0,6.0,69,0.00,,,0.01,Wunderground v.1.15,2013-07-22 22:27:00,
2013-07-22 17:32:00,86.4,74.1,29.74,WSW,253,4.0,4.0,67,0.00,,,0.01,Wunderground v.1.15,2013-07-22 22:32:00,
2013-07-22 17:38:00,86.3,74.0,29.74,West,271,4.0,9.0,67,0.00,,,0.01,Wunderground v.1.15,2013-07-22 22:38:00,
2013-07-22 17:43:00,86.2,74.8,29.74,SW,229,4.0,4.0,69,0.00,,,0.01,Wunderground v.1.15,2013-07-22 22:43:00,
2013-07-22 17:48:00,86.3,74.5,29.74,West,259,3.0,4.0,68,0.00,,,0.01,Wunderground v.1.15,2013-07-22 22:48:00,
2013-07-22 17:53:00,86.3,73.6,29.74,WSW,253,4.0,7.0,66,0.00,,,0.01,Wunderground v.1.15,2013-07-22 22:53:00,
2013-07-22 17:58:00,86.2,73.0,29.74,SW,232,5.0,8.0,65,0.00,,,0.01,Wunderground v.1.15,2013-07-22 22:58:00,
2013-07-22 18:04:00,86.2,74.0,29.74,WSW,246,4.0,5.0,67,0.00,,,0.01,Wunderground v.1.15,2013-07-22 23:04:00,
2013-07-22 18:09:00,86.2,74.4,29.74,SSW,207,4.0,6.0,68,0.00,,,0.01,Wunderground v.1.15,2013-07-22 23:09:00,
2013-07-22 18:14:00,86.3,74.0,29.74,SW,231,3.0,4.0,67,0.00,,,0.01,Wunderground v.1.15,2013-07-22 23:14:00,
2013-07-22 18:19:00,86.2,74.8,29.73,SW,225,3.0,5.0,69,0.00,,,0.01,Wunderground v.1.15,2013-07-22 23:19:00,
2013-07-22 18:24:00,86.1,75.2,29.73,SW,214,3.0,6.0,70,0.00,,,0.01,Wunderground v.1.15,2013-07-22 23:24:00,
2013-07-22 18:30:00,86.0,74.6,29.73,SSW,203,3.0,3.0,69,0.00,,,0.01,Wunderground v.1.15,2013-07-22 23:30:00,
2013-07-22 20:09:00,79.6,73.6,29.73,SSW,198,0.0,0.0,82,0.00,,,0.01,Wunderground v.1.15,2013-07-23 01:09:00,
2013-07-22 20:14:00,79.4,73.8,29.73,SSW,198,0.0,0.0,83,0.00,,,0.01,Wunderground v.1.15,2013-07-23 01:14:00,
2013-07-22 20:19:00,79.2,73.9,29.74,SSW,198,0.0,0.0,84,0.00,,,0.01,Wunderground v.1.15,2013-07-23 01:19:00,
2013-07-22 20:24:00,79.0,73.7,29.73,SSW,198,0.0,0.0,84,0.00,,,0.01,Wunderground v.1.15,2013-07-23 01:24:00,
2013-07-22 20:29:00,78.6,73.7,29.73,SSW,198,0.0,0.0,85,0.00,,,0.01,Wunderground v.1.15,2013-07-23 01:29:00,
2013-07-22 20:34:00,78.3,73.4,29.73,SSW,199,0.0,0.0,85,0.00,,,0.01,Wunderground v.1.15,2013-07-23 01:34:00,
2013-07-22 20:40:00,77.8,73.3,29.73,SSW,198,0.0,0.0,86,0.00,,,0.01,Wunderground v.1.15,2013-07-23 01:40:00,
2013-07-22 20:45:00,77.7,73.2,29.73,SSW,198,0.0,0.0,86,0.00,,,0.01,Wunderground v.1.15,2013-07-23 01:45:00,
2013-07-22 20:50:00,77.5,73.3,29.73,SSW,199,0.0,0.0,87,0.00,,,0.01,Wunderground v.1.15,2013-07-23 01:50:00,
2013-07-22 20:55:00,77.2,73.0,29.73,SSW,198,0.0,0.0,87,0.00,,,0.01,Wunderground v.1.15,2013-07-23 01:55:00,
2013-07-22 21:00:00,77.0,73.2,29.74,SSW,199,0.0,0.0,88,0.00,,,0.01,Wunderground v.1.15,2013-07-23 02:00:00,
2013-07-22 21:06:00,76.8,73.0,29.73,SSW,198,0.0,0.0,88,0.00,,,0.01,Wunderground v.1.15,2013-07-23 02:06:00,
2013-07-22 21:11:00,76.6,73.1,29.73,SSW,198,0.0,0.0,89,0.00,,,0.01,Wunderground v.1.15,2013-07-23 02:11:00,
2013-07-22 21:16:00,76.5,73.0,29.73,SSW,198,0.0,0.0,89,0.00,,,0.01,Wunderground v.1.15,2013-07-23 02:16:00,
2013-07-22 21:21:00,76.2,73.1,29.74,SSW,198,0.0,0.0,90,0.00,,,0.01,Wunderground v.1.15,2013-07-23 02:21:00,
2013-07-22 21:26:00,76.1,73.3,29.74,SSW,198,0.0,0.0,91,0.00,,,0.01,Wunderground v.1.15,2013-07-23 02:26:00,
2013-07-22 21:32:00,75.8,73.0,29.74,SSW,198,0.0,0.0,91,0.00,,,0.01,Wunderground v.1.15,2013-07-23 02:32:00,
2013-07-22 21:37:00,75.6,72.8,29.74,SSW,199,0.0,0.0,91,0.00,,,0.01,Wunderground v.1.15,2013-07-23 02:37:00,
2013-07-22 21:42:00,75.6,73.1,29.74,SSW,198,0.0,0.0,92,0.00,,,0.01,Wunderground v.1.15,2013-07-23 02:42:00,
2013-07-22 21:47:00,75.7,73.2,29.74,SSW,198,0.0,0.0,92,0.00,,,0.01,Wunderground v.1.15,2013-07-23 02:47:00,
2013-07-22 21:52:00,75.8,73.0,29.74,SSW,200,0.0,0.0,91,0.00,,,0.01,Wunderground v.1.15,2013-07-23 02:52:00,
2013-07-22 21:58:00,75.9,73.1,29.75,SSW,200,0.0,0.0,91,0.00,,,0.01,Wunderground v.1.15,2013-07-23 02:58:00,
2013-07-22 22:03:00,75.9,73.1,29.75,SSW,200,0.0,0.0,91,0.00,,,0.01,Wunderground v.1.15,2013-07-23 03:03:00,
2013-07-22 22:08:00,75.9,73.1,29.76,SSW,200,0.0,0.0,91,0.00,,,0.01,Wunderground v.1.15,2013-07-23 03:08:00,
2013-07-22 22:13:00,75.9,73.1,29.76,SSW,200,0.0,0.0,91,0.00,,,0.01,Wunderground v.1.15,2013-07-23 03:13:00,
2013-07-22 22:18:00,75.8,73.0,29.77,SSW,201,0.0,0.0,91,0.00,,,0.01,Wunderground v.1.15,2013-07-23 03:18:00,
2013-07-22 22:23:00,75.7,73.2,29.77,SSW,204,0.0,0.0,92,0.00,,,0.01,Wunderground v.1.15,2013-07-23 03:23:00,
2013-07-22 22:29:00,75.9,73.4,29.77,SW,217,0.0,0.0,92,0.00,,,0.01,Wunderground v.1.15,2013-07-23 03:29:00,
2013-07-22 22:34:00,76.1,73.6,29.78,SW,217,0.0,1.0,92,0.00,,,0.01,Wunderground v.1.15,2013-07-23 03:34:00,
2013-07-22 22:39:00,76.3,73.5,29.79,SW,217,0.0,1.0,91,0.00,,,0.01,Wunderground v.1.15,2013-07-23 03:39:00,
2013-07-22 22:44:00,76.5,73.7,29.78,SW,217,0.0,0.0,91,0.00,,,0.01,Wunderground v.1.15,2013-07-23 03:44:00,
2013-07-22 22:49:00,76.0,71.8,29.83,WNW,300,2.0,10.0,87,0.00,,,0.01,Wunderground v.1.15,2013-07-23 03:49:00,
2013-07-22 22:54:00,74.4,67.1,29.83,NW,306,4.0,7.0,78,0.00,,,0.01,Wunderground v.1.15,2013-07-23 03:54:00,
2013-07-22 22:59:00,73.5,66.6,29.83,North,4,5.0,7.0,79,0.00,,,0.01,Wunderground v.1.15,2013-07-23 03:59:00,
2013-07-22 23:02:00,73.0,66.8,29.83,North,358,5.0,5.0,81,0.00,,,0.01,Wunderground v.1.15,2013-07-23 04:02:00,
2013-07-22 23:03:00,72.7,66.5,29.83,NNW,344,4.0,5.0,81,0.00,,,0.01,Wunderground v.1.15,2013-07-23 04:03:00,
2013-07-22 23:05:00,72.3,66.5,29.83,WNW,284,4.0,10.0,82,0.00,,,0.01,Wunderground v.1.15,2013-07-23 04:05:00,
2013-07-22 23:08:00,71.7,66.9,29.84,NW,321,4.0,10.0,85,0.00,,,0.01,Wunderground v.1.15,2013-07-23 04:08:00,
2013-07-22 23:13:00,70.1,66.7,29.84,NW,314,4.0,7.0,89,1.77,,,0.12,Wunderground v.1.15,2013-07-23 04:13:00,
2013-07-22 23:18:00,68.8,66.4,29.83,NNW,335,3.0,7.0,92,0.50,,,0.18,Wunderground v.1.15,2013-07-23 04:18:00,
2013-07-22 23:24:00,68.2,66.1,29.83,NNE,12,2.0,5.0,93,0.15,,,0.19,Wunderground v.1.15,2013-07-23 04:24:00,
2013-07-22 23:29:00,67.9,66.1,29.83,ENE,63,1.0,5.0,94,0.13,,,0.20,Wunderground v.1.15,2013-07-23 04:29:00,
2013-07-22 23:34:00,67.6,66.1,29.81,ENE,64,0.0,1.0,95,0.12,,,0.21,Wunderground v.1.15,2013-07-23 04:34:00,
2013-07-22 23:39:00,67.5,66.0,29.80,SW,236,0.0,1.0,95,0.06,,,0.21,Wunderground v.1.15,2013-07-23 04:39:00,
2013-07-22 23:44:00,67.3,65.8,29.81,WNW,296,0.0,0.0,95,0.04,,,0.21,Wunderground v.1.15,2013-07-23 04:44:00,
2013-07-22 23:49:00,67.3,66.1,29.81,North,360,0.0,0.0,96,0.00,,,0.21,Wunderground v.1.15,2013-07-23 04:49:00,
2013-07-22 23:55:00,67.3,66.1,29.78,NE,38,0.0,0.0,96,0.00,,,0.22,Wunderground v.1.15,2013-07-23 04:55:00,